Time;durP1;ratioP1;P1;durP2;ratioP2;P2;SDS_P1;SDS_P2;PMS_P1;PMS_P2;Temp;Humidity;BMP_temperature;BMP_pressure;BME280_temperature;BME280_humidity;BME280_pressure;Samples;Min_cycle;Max_cycle;Signal;HPM_P1;HPM_P2
2022/03/07 00:02:08;;;;;;;9.43;2.97;;;0.60;99.90;;;;;;5068617;28;20048;-84
2022/03/07 00:04:34;;;;;;;9.50;3.13;;;0.70;99.90;;;;;;5069699;28;20032;-84
2022/03/07 00:07:00;;;;;;;9.25;3.30;;;0.70;99.90;;;;;;5059674;28;20043;-83
2022/03/07 00:09:26;;;;;;;9.00;2.88;;;0.70;99.90;;;;;;5083269;28;20039;-84
2022/03/07 00:11:52;;;;;;;11.38;3.17;;;0.60;99.90;;;;;;5050796;28;20512;-84
2022/03/07 00:14:18;;;;;;;8.90;3.38;;;2.40;99.90;;;;;;5077696;28;20043;-83
2022/03/07 00:16:45;;;;;;;8.93;2.80;;;0.60;99.90;;;;;;5065422;28;20032;-83
2022/03/07 00:19:10;;;;;;;8.98;3.10;;;0.50;99.90;;;;;;5061326;28;20111;-84
2022/03/07 00:21:36;;;;;;;8.45;2.70;;;1.70;99.90;;;;;;5064374;28;20177;-84
2022/03/07 00:24:03;;;;;;;7.35;2.40;;;0.50;99.90;;;;;;5092341;28;20039;-84
2022/03/07 00:26:30;;;;;;;8.30;3.05;;;0.50;99.90;;;;;;5079211;28;20525;-83
2022/03/07 00:28:55;;;;;;;12.18;3.00;;;2.40;99.90;;;;;;5061842;28;20094;-84
2022/03/07 00:31:21;;;;;;;10.38;2.63;;;0.50;99.90;;;;;;5081799;28;20504;-83
2022/03/07 00:33:47;;;;;;;9.32;3.05;;;0.50;99.90;;;;;;5066703;28;20032;-83
2022/03/07 00:36:14;;;;;;;7.38;2.80;;;;;;;;;;5077634;28;20041;-83
2022/03/07 00:38:39;;;;;;;9.10;2.90;;;0.50;99.90;;;;;;5066676;28;20041;-84
2022/03/07 00:41:08;;;;;;;7.45;2.80;;;0.40;99.90;;;;;;5100928;28;20390;-83
2022/03/07 00:43:33;;;;;;;7.90;2.90;;;1.20;99.90;;;;;;5080140;28;20078;-83
2022/03/07 00:45:59;;;;;;;9.55;3.10;;;2.10;99.90;;;;;;5071533;28;20063;-83
2022/03/07 00:48:25;;;;;;;9.68;2.58;;;0.40;99.90;;;;;;5080621;28;20054;-83
2022/03/07 00:50:52;;;;;;;7.25;2.70;;;0.40;99.90;;;;;;5079659;28;20556;-83
2022/03/07 00:53:21;;;;;;;8.52;3.15;;;0.40;99.90;;;;;;5077848;28;20055;-83
2022/03/07 00:55:47;;;;;;;12.45;3.45;;;0.40;99.90;;;;;;5079158;28;20382;-83
2022/03/07 00:58:14;;;;;;;8.73;3.30;;;0.40;99.90;;;;;;5066087;28;20032;-83
2022/03/07 01:00:40;;;;;;;8.75;3.10;;;1.40;99.90;;;;;;5084776;28;20038;-82
2022/03/07 01:03:08;;;;;;;8.38;3.05;;;0.40;99.90;;;;;;5062554;28;20086;-83
2022/03/07 01:05:33;;;;;;;10.90;3.47;;;0.30;99.90;;;;;;5084734;28;20032;-83
2022/03/07 01:07:59;;;;;;;10.13;3.38;;;0.30;99.90;;;;;;5070596;28;20039;-83
2022/03/07 01:10:25;;;;;;;8.80;3.00;;;;;;;;;;5080798;28;20499;-83
2022/03/07 01:12:52;;;;;;;11.52;3.47;;;0.20;99.90;;;;;;5080619;28;20067;-84
2022/03/07 01:15:18;;;;;;;12.32;4.05;;;0.30;99.90;;;;;;5079390;28;20058;-83
2022/03/07 01:17:44;;;;;;;10.48;3.97;;;0.20;99.90;;;;;;5062047;28;20032;-83
2022/03/07 01:20:10;;;;;;;10.07;3.85;;;0.20;99.90;;;;;;5082043;28;20028;-83
2022/03/07 01:22:37;;;;;;;10.70;3.78;;;0.10;99.90;;;;;;5067068;28;20040;-83
2022/03/07 01:25:05;;;;;;;10.90;4.10;;;0.10;99.90;;;;;;5065451;28;20051;-83
2022/03/07 01:27:32;;;;;;;9.65;3.30;;;0.10;99.90;;;;;;5081192;28;20048;-83
2022/03/07 01:29:58;;;;;;;10.48;3.58;;;0.30;99.90;;;;;;5067057;28;20524;-83
2022/03/07 01:32:24;;;;;;;11.18;3.45;;;1.30;99.90;;;;;;5079259;28;20047;-83
2022/03/07 01:34:49;;;;;;;16.02;4.05;;;0.10;99.90;;;;;;5064732;28;20029;-83
2022/03/07 01:37:15;;;;;;;8.25;3.20;;;1.30;99.90;;;;;;5081888;28;20520;-83
2022/03/07 01:39:42;;;;;;;8.65;3.25;;;0.10;99.90;;;;;;5065764;28;20396;-83
2022/03/07 01:42:08;;;;;;;8.70;3.55;;;0.10;99.90;;;;;;5081108;28;20036;-83
2022/03/07 01:44:34;;;;;;;11.40;3.50;;;0.10;99.90;;;;;;5078063;28;20028;-83
2022/03/07 01:47:00;;;;;;;11.25;3.40;;;0.00;99.90;;;;;;5045192;28;20157;-83
2022/03/07 01:49:27;;;;;;;8.98;3.80;;;1.20;99.90;;;;;;5079055;28;20071;-83
2022/03/07 01:51:53;;;;;;;9.65;3.30;;;1.50;99.90;;;;;;5084263;28;20036;-83
2022/03/07 01:54:20;;;;;;;9.80;3.88;;;0.10;99.90;;;;;;5081876;28;20070;-83
2022/03/07 01:56:48;;;;;;;10.30;3.47;;;0.10;99.90;;;;;;5063364;28;20055;-84
2022/03/07 01:59:15;;;;;;;9.40;3.17;;;0.10;99.90;;;;;;5080301;28;20075;-82
2022/03/07 02:01:41;;;;;;;9.40;3.70;;;0.10;99.90;;;;;;5081446;28;20036;-83
2022/03/07 02:04:08;;;;;;;9.35;3.17;;;0.00;99.90;;;;;;5081028;28;20035;-83
2022/03/07 02:06:34;;;;;;;8.55;3.50;;;1.60;99.90;;;;;;5064795;28;20059;-82
2022/03/07 02:09:00;;;;;;;9.15;3.40;;;1.40;99.90;;;;;;5084693;28;20039;-83
2022/03/07 02:11:25;;;;;;;12.10;3.55;;;0.00;99.90;;;;;;5081439;28;20051;-83
2022/03/07 02:13:52;;;;;;;11.88;3.20;;;1.00;99.90;;;;;;5067465;28;20043;-82
2022/03/07 02:16:20;;;;;;;8.23;3.30;;;0.10;99.90;;;;;;5083767;28;20039;-83
2022/03/07 02:18:46;;;;;;;8.82;3.50;;;2.00;99.90;;;;;;5064061;28;20133;-83
2022/03/07 02:21:14;;;;;;;8.30;3.00;;;2.20;99.90;;;;;;5081383;28;20040;-82
2022/03/07 02:23:40;;;;;;;8.93;3.55;;;0.20;99.90;;;;;;5083562;28;20607;-82
2022/03/07 02:26:17;;;;;;;10.65;3.42;;;0.20;99.90;;;;;;5082204;28;20471;-83
2022/03/07 02:28:44;;;;;;;9.32;3.38;;;1.40;99.90;;;;;;5081521;28;20040;-83
2022/03/07 02:31:15;;;;;;;8.05;3.10;;;0.10;99.90;;;;;;5080995;28;20048;-82
2022/03/07 02:33:41;;;;;;;9.75;2.90;;;0.00;99.90;;;;;;5067091;28;20043;-82
2022/03/07 02:36:07;;;;;;;8.13;2.95;;;;;;;;;;5044625;28;20131;-82
2022/03/07 02:38:34;;;;;;;8.18;3.08;;;0.00;99.90;;;;;;5075496;28;20044;-82
2022/03/07 02:41:00;;;;;;;10.63;3.05;;;-0.10;99.90;;;;;;5082344;28;20040;-83
2022/03/07 02:43:26;;;;;;;10.43;3.25;;;-0.10;99.90;;;;;;5078844;28;20032;-82
2022/03/07 02:45:52;;;;;;;8.40;3.35;;;-0.10;99.90;;;;;;5065587;28;20039;-82
2022/03/07 02:48:18;;;;;;;9.80;3.70;;;1.40;99.90;;;;;;5083870;28;20063;-83
2022/03/07 02:50:45;;;;;;;8.30;3.28;;;-0.10;99.90;;;;;;5083495;28;20105;-82
2022/03/07 02:53:12;;;;;;;8.48;3.38;;;-0.10;99.90;;;;;;5048334;28;20114;-82
2022/03/07 02:55:38;;;;;;;8.45;3.20;;;2.10;99.90;;;;;;5064239;28;20036;-82
2022/03/07 02:58:04;;;;;;;8.70;3.60;;;-0.10;99.90;;;;;;5051279;28;20044;-82
2022/03/07 03:00:30;;;;;;;10.57;4.10;;;-0.20;99.90;;;;;;5065436;28;20374;-82
2022/03/07 03:02:57;;;;;;;11.98;3.90;;;-0.10;99.90;;;;;;5078635;28;20043;-82
2022/03/07 03:05:23;;;;;;;10.77;3.63;;;0.00;99.90;;;;;;5086004;28;20484;-82
2022/03/07 03:07:51;;;;;;;11.15;3.80;;;0.00;99.90;;;;;;5069543;28;20040;-83
2022/03/07 03:10:17;;;;;;;9.90;3.63;;;0.00;99.90;;;;;;5083823;28;20039;-82
2022/03/07 03:12:44;;;;;;;11.02;3.97;;;0.00;99.90;;;;;;5077082;28;20055;-82
2022/03/07 03:15:10;;;;;;;11.27;4.57;;;0.00;99.90;;;;;;5051902;28;20432;-82
2022/03/07 03:17:39;;;;;;;8.75;3.70;;;0.00;99.90;;;;;;5078528;28;20050;-82
2022/03/07 03:20:05;;;;;;;10.25;4.10;;;0.00;99.90;;;;;;5076345;28;20052;-82
2022/03/07 03:22:32;;;;;;;11.23;4.13;;;-0.10;99.90;;;;;;5078157;28;20090;-82
2022/03/07 03:24:58;;;;;;;8.90;3.65;;;-0.10;99.90;;;;;;5063290;28;20044;-82
2022/03/07 03:27:23;;;;;;;11.52;4.05;;;-0.10;99.90;;;;;;5044497;28;20485;-83
2022/03/07 03:29:49;;;;;;;9.45;3.40;;;-0.20;99.90;;;;;;5060163;28;20397;-82
2022/03/07 03:32:15;;;;;;;9.25;3.45;;;-0.20;99.90;;;;;;5077873;28;20570;-82
2022/03/07 03:34:41;;;;;;;11.23;3.70;;;-0.20;99.90;;;;;;5074936;28;20043;-82
2022/03/07 03:37:07;;;;;;;10.02;3.45;;;-0.30;99.90;;;;;;5063844;28;20172;-82
2022/03/07 03:39:33;;;;;;;8.48;3.20;;;-0.40;99.90;;;;;;5080845;28;20078;-82
2022/03/07 03:41:59;;;;;;;8.60;3.40;;;-0.40;99.90;;;;;;5062183;28;20032;-82
2022/03/07 03:44:24;;;;;;;11.20;4.30;;;-0.40;99.90;;;;;;5076997;28;20059;-82
2022/03/07 03:46:50;;;;;;;9.63;3.20;;;-0.40;99.90;;;;;;5044744;28;20135;-82
2022/03/07 03:49:16;;;;;;;8.65;3.40;;;-0.40;99.90;;;;;;5063360;28;20052;-82
2022/03/07 03:51:41;;;;;;;8.90;3.58;;;-0.40;99.90;;;;;;5061959;28;20078;-82
2022/03/07 03:54:07;;;;;;;9.38;3.53;;;-0.40;99.90;;;;;;5064487;28;20124;-82
2022/03/07 03:56:33;;;;;;;10.45;4.05;;;-0.20;99.90;;;;;;5060749;28;20481;-82
2022/03/07 03:58:59;;;;;;;9.60;3.70;;;-0.50;99.90;;;;;;5062988;28;20040;-82
2022/03/07 04:01:24;;;;;;;11.38;3.90;;;-0.60;99.90;;;;;;5060618;28;20052;-82
2022/03/07 04:03:50;;;;;;;10.05;3.70;;;0.70;99.90;;;;;;5064458;28;20055;-82
2022/03/07 04:06:16;;;;;;;8.02;3.20;;;1.00;99.90;;;;;;5062644;28;20094;-82
2022/03/07 04:08:42;;;;;;;9.90;3.75;;;-0.20;99.90;;;;;;5063909;28;20527;-82
2022/03/07 04:11:07;;;;;;;13.32;3.90;;;-0.60;99.90;;;;;;5043638;28;20051;-82
2022/03/07 04:13:33;;;;;;;8.55;3.10;;;-0.60;99.90;;;;;;5063288;28;20044;-82
2022/03/07 04:15:59;;;;;;;8.27;3.28;;;-0.60;99.90;;;;;;5063229;28;20063;-82
2022/03/07 04:18:24;;;;;;;9.40;4.00;;;1.20;99.90;;;;;;5078675;28;20500;-82
2022/03/07 04:20:50;;;;;;;9.10;4.13;;;-0.70;99.90;;;;;;5059326;28;20120;-82
2022/03/07 04:23:20;;;;;;;10.73;4.18;;;-0.60;99.90;;;;;;5062457;28;20116;-82
2022/03/07 04:25:48;;;;;;;13.35;4.00;;;-0.60;99.90;;;;;;5077412;28;20478;-82
2022/03/07 04:28:14;;;;;;;8.30;3.40;;;1.00;99.90;;;;;;5078286;28;20476;-82
2022/03/07 04:30:40;;;;;;;10.93;4.00;;;-0.40;99.90;;;;;;5058955;28;20402;-82
2022/03/07 04:33:07;;;;;;;9.00;3.28;;;-0.70;99.90;;;;;;5066913;28;20047;-82
2022/03/07 04:35:33;;;;;;;10.50;3.78;;;-0.70;99.90;;;;;;5075740;28;20089;-82
2022/03/07 04:38:00;;;;;;;11.82;3.80;;;0.80;99.90;;;;;;5064687;28;20036;-83
2022/03/07 04:40:26;;;;;;;8.88;3.80;;;-0.80;99.90;;;;;;5077891;28;20526;-82
2022/03/07 04:42:52;;;;;;;8.70;3.47;;;0.50;99.90;;;;;;5078133;28;20043;-82
2022/03/07 04:45:18;;;;;;;9.68;3.78;;;-0.80;99.90;;;;;;5060801;28;20037;-82
2022/03/07 04:47:44;;;;;;;11.10;4.05;;;-0.80;99.90;;;;;;5076125;28;20134;-83
2022/03/07 04:50:13;;;;;;;9.93;3.60;;;-0.90;99.90;;;;;;5063549;28;20122;-82
2022/03/07 04:52:39;;;;;;;10.35;3.65;;;-0.90;99.90;;;;;;5064289;28;20051;-83
2022/03/07 04:55:05;;;;;;;9.15;3.67;;;-0.90;99.90;;;;;;5076927;28;20451;-82
2022/03/07 04:57:31;;;;;;;8.93;3.50;;;-0.90;99.90;;;;;;5076071;28;20064;-82
2022/03/07 04:59:57;;;;;;;11.20;3.83;;;-1.00;99.90;;;;;;5041143;28;20048;-82
2022/03/07 05:02:23;;;;;;;11.95;4.00;;;0.80;99.90;;;;;;5067029;28;20119;-81
2022/03/07 05:04:49;;;;;;;8.73;3.78;;;-1.00;99.90;;;;;;5060980;28;20413;-82
2022/03/07 05:07:14;;;;;;;9.13;3.60;;;-1.00;99.90;;;;;;5080281;28;20121;-82
2022/03/07 05:09:40;;;;;;;8.88;3.30;;;-0.70;99.90;;;;;;5059488;28;20487;-82
2022/03/07 05:12:06;;;;;;;8.48;3.85;;;-1.00;99.90;;;;;;5044250;28;20430;-81
2022/03/07 05:14:32;;;;;;;10.40;3.70;;;-1.00;99.90;;;;;;5078774;28;20028;-82
2022/03/07 05:16:57;;;;;;;9.60;3.65;;;-1.00;99.90;;;;;;5080654;28;20032;-82
2022/03/07 05:19:23;;;;;;;10.57;3.30;;;-1.10;99.90;;;;;;5080097;28;20036;-82
2022/03/07 05:21:49;;;;;;;8.88;3.75;;;-0.60;99.90;;;;;;5065155;28;20044;-82
2022/03/07 05:24:15;;;;;;;9.23;3.75;;;-1.10;99.90;;;;;;5083741;28;20036;-82
2022/03/07 05:26:41;;;;;;;9.50;3.67;;;-1.00;99.90;;;;;;5063460;28;20504;-82
2022/03/07 05:29:07;;;;;;;9.80;4.20;;;-1.10;99.90;;;;;;5082692;28;20036;-81
2022/03/07 05:31:33;;;;;;;9.13;4.05;;;-1.10;99.90;;;;;;5070716;28;20040;-82
2022/03/07 05:33:58;;;;;;;10.25;3.60;;;-0.80;99.90;;;;;;5087469;28;20037;-81
2022/03/07 05:36:24;;;;;;;8.98;3.70;;;-1.20;99.90;;;;;;5077478;28;20036;-81
2022/03/07 05:38:50;;;;;;;10.98;3.75;;;-1.20;99.90;;;;;;5062829;28;20043;-83
2022/03/07 05:41:16;;;;;;;9.85;4.00;;;-1.20;99.90;;;;;;5079357;28;20072;-84
2022/03/07 05:43:41;;;;;;;9.35;3.75;;;-1.00;99.90;;;;;;5062561;28;20036;-84
2022/03/07 05:46:07;;;;;;;9.95;4.18;;;-0.90;99.90;;;;;;5082620;28;20120;-83
2022/03/07 05:48:33;;;;;;;9.07;3.80;;;0.30;99.90;;;;;;5062999;28;20169;-84
2022/03/07 05:50:59;;;;;;;9.60;4.18;;;-1.20;99.90;;;;;;5082494;28;20184;-83
2022/03/07 05:53:25;;;;;;;8.90;3.92;;;-1.20;99.90;;;;;;5084208;28;20077;-84
2022/03/07 05:55:51;;;;;;;9.80;4.03;;;-1.20;99.90;;;;;;5049755;28;20051;-84
2022/03/07 05:58:17;;;;;;;9.65;4.25;;;-1.20;99.90;;;;;;5079668;28;20036;-81
2022/03/07 06:00:43;;;;;;;11.38;4.50;;;-1.20;99.90;;;;;;5064061;28;20515;-82
2022/03/07 06:03:09;;;;;;;10.90;5.15;;;-1.20;99.90;;;;;;5068119;28;20028;-81
2022/03/07 06:05:35;;;;;;;11.20;5.03;;;-0.90;99.90;;;;;;5069982;28;20044;-81
2022/03/07 06:08:01;;;;;;;13.30;5.68;;;-1.20;99.90;;;;;;5050076;28;20040;-81
2022/03/07 06:10:26;;;;;;;12.20;5.32;;;-0.90;99.90;;;;;;5033112;28;20890;-82
2022/03/07 06:12:52;;;;;;;13.95;5.53;;;-1.10;99.90;;;;;;5067321;28;20032;-82
2022/03/07 06:15:19;;;;;;;12.10;6.00;;;-1.10;99.90;;;;;;5051882;28;20455;-82
2022/03/07 06:17:53;;;;;;;13.55;6.40;;;-1.00;99.90;;;;;;5080607;28;20044;-82
2022/03/07 06:20:20;;;;;;;16.00;7.13;;;-0.90;99.90;;;;;;5100779;28;20048;-81
2022/03/07 06:22:46;;;;;;;16.02;7.53;;;-0.80;99.90;;;;;;5070152;28;20032;-82
2022/03/07 06:25:12;;;;;;;14.35;6.70;;;-0.60;99.90;;;;;;5053624;28;20062;-81
2022/03/07 06:27:38;;;;;;;14.77;7.50;;;1.20;99.90;;;;;;5101499;28;20079;-82
2022/03/07 06:30:04;;;;;;;14.30;7.25;;;0.20;99.90;;;;;;5058518;28;20161;-82
2022/03/07 06:32:30;;;;;;;16.17;7.50;;;-0.40;99.90;;;;;;5062848;28;20497;-85
2022/03/07 06:34:56;;;;;;;13.35;7.40;;;-0.30;99.90;;;;;;5081888;28;20159;-85
2022/03/07 06:37:23;;;;;;;17.38;7.90;;;;;;;;;;5063555;28;20042;-87
2022/03/07 06:39:49;;;;;;;14.80;8.00;;;-0.30;99.90;;;;;;5077311;28;20519;-87
2022/03/07 06:42:14;;;;;;;14.13;7.07;;;-0.20;99.90;;;;;;5064646;28;20048;-88
2022/03/07 06:44:40;;;;;;;13.40;6.13;;;-0.20;99.90;;;;;;5060933;28;20040;-88
2022/03/07 06:47:07;;;;;;;11.90;6.05;;;-0.20;99.90;;;;;;5048695;28;20104;-87
2022/03/07 06:49:33;;;;;;;12.75;6.40;;;0.00;99.90;;;;;;5063660;28;20039;-87
2022/03/07 06:51:59;;;;;;;13.25;7.22;;;-0.20;99.90;;;;;;5063192;28;20041;-87
2022/03/07 06:54:25;;;;;;;11.82;6.28;;;0.00;99.90;;;;;;5064680;28;20047;-87
2022/03/07 06:56:50;;;;;;;14.80;6.60;;;-0.10;99.90;;;;;;5083716;28;20035;-87
2022/03/07 06:59:16;;;;;;;12.38;6.53;;;1.00;99.90;;;;;;5081983;28;20842;-87
2022/03/07 07:01:42;;;;;;;17.13;7.32;;;0.00;99.90;;;;;;5064351;28;20047;-86
2022/03/07 07:04:08;;;;;;;16.70;7.38;;;0.10;99.90;;;;;;5050676;28;20032;-86
2022/03/07 07:06:33;;;;;;;11.85;6.47;;;0.20;99.90;;;;;;5061216;28;20137;-86
2022/03/07 07:08:59;;;;;;;14.90;6.78;;;0.20;99.90;;;;;;5063849;28;20404;-88
2022/03/07 07:11:25;;;;;;;13.80;6.47;;;0.30;99.90;;;;;;5084083;28;20105;-88
2022/03/07 07:13:51;;;;;;;14.88;7.38;;;0.40;99.90;;;;;;5046724;28;20496;-87
2022/03/07 07:16:17;;;;;;;12.88;7.03;;;0.50;99.90;;;;;;5079280;28;20040;-89
2022/03/07 07:18:43;;;;;;;13.88;6.47;;;0.50;99.90;;;;;;5036273;28;20039;-86
2022/03/07 07:21:08;;;;;;;12.38;6.55;;;1.00;99.90;;;;;;5065549;28;20038;-89
2022/03/07 07:23:35;;;;;;;12.52;6.20;;;0.70;99.90;;;;;;5068087;28;20648;-89
2022/03/07 07:26:04;;;;;;;15.00;6.70;;;0.70;99.90;;;;;;5064956;28;20053;-90
2022/03/07 07:28:30;;;;;;;14.90;6.75;;;0.80;99.90;;;;;;5080716;28;20059;-91
2022/03/07 07:30:56;;;;;;;13.38;6.57;;;0.80;99.90;;;;;;5051215;28;20476;-85
2022/03/07 07:33:21;;;;;;;13.38;7.05;;;2.90;99.90;;;;;;5051350;28;20036;-86
2022/03/07 07:35:48;;;;;;;14.52;7.43;;;;;;;;;;5061457;28;20044;-84
2022/03/07 07:38:16;;;;;;;12.23;6.93;;;1.10;99.90;;;;;;5058189;28;20085;-94
2022/03/07 07:40:43;;;;;;;14.63;6.65;;;1.20;99.90;;;;;;5072773;28;20044;-95
2022/03/07 07:43:08;;;;;;;12.80;6.57;;;1.30;99.90;;;;;;5066061;28;20043;-94
2022/03/07 07:45:34;;;;;;;14.73;6.68;;;1.30;99.90;;;;;;5073459;28;20024;-93
2022/03/07 07:48:00;;;;;;;12.80;5.65;;;1.50;99.90;;;;;;5049304;28;20088;-91
2022/03/07 07:50:27;;;;;;;13.05;5.88;;;1.60;99.90;;;;;;5057756;28;20062;-96
2022/03/07 07:52:54;;;;;;;11.65;5.63;;;1.50;99.90;;;;;;5086264;28;20353;-96
2022/03/07 07:55:21;;;;;;;12.20;5.93;;;3.80;99.90;;;;;;5070671;28;20111;-86
2022/03/07 07:57:46;;;;;;;11.20;5.82;;;3.40;99.90;;;;;;5068740;28;20136;-86
2022/03/07 08:00:15;;;;;;;10.82;5.38;;;3.90;99.90;;;;;;5065183;28;20059;-86
2022/03/07 08:02:42;;;;;;;10.85;5.00;;;2.10;99.90;;;;;;5076028;28;20036;-85
2022/03/07 08:05:08;;;;;;;12.32;4.95;;;2.20;99.90;;;;;;5061314;28;20036;-86
2022/03/07 08:07:34;;;;;;;10.68;5.00;;;2.30;99.90;;;;;;5063056;28;20032;-86
2022/03/07 08:10:01;;;;;;;11.68;5.03;;;2.40;99.90;;;;;;5078852;28;20101;-85
2022/03/07 08:12:27;;;;;;;10.35;4.65;;;2.40;99.90;;;;;;5076519;28;20036;-85
2022/03/07 08:14:53;;;;;;;10.85;4.80;;;3.40;99.90;;;;;;5077917;28;20036;-84
2022/03/07 08:17:19;;;;;;;10.75;4.93;;;2.60;99.90;;;;;;5060431;28;20036;-86
2022/03/07 08:19:45;;;;;;;10.93;4.15;;;3.60;99.90;;;;;;5049060;28;20089;-87
2022/03/07 08:22:14;;;;;;;11.32;4.90;;;2.80;99.90;;;;;;5033657;28;20044;-87
2022/03/07 08:24:39;;;;;;;11.23;5.20;;;2.90;99.90;;;;;;5031808;28;20044;-87
2022/03/07 08:27:05;;;;;;;11.13;5.32;;;;;;;;;;5063586;28;20040;-84
2022/03/07 08:29:31;;;;;;;12.52;5.50;;;3.10;99.90;;;;;;5049932;28;20042;-86
2022/03/07 08:31:57;;;;;;;14.30;5.85;;;3.20;99.90;;;;;;5060092;28;20040;-88
2022/03/07 08:34:23;;;;;;;13.98;5.57;;;3.20;99.90;;;;;;5064789;28;20089;-87
2022/03/07 08:36:48;;;;;;;13.30;5.60;;;5.40;99.90;;;;;;5068322;28;20055;-87
2022/03/07 08:39:14;;;;;;;14.85;6.10;;;3.80;99.90;;;;;;5066576;28;20040;-86
2022/03/07 08:41:40;;;;;;;12.48;6.38;;;5.00;99.90;;;;;;5061512;28;20059;-87
2022/03/07 08:44:06;;;;;;;12.52;6.07;;;3.60;99.90;;;;;;5074586;28;20037;-86
2022/03/07 08:46:31;;;;;;;12.43;5.63;;;3.80;99.90;;;;;;5051197;28;20190;-87
2022/03/07 08:48:57;;;;;;;14.18;5.30;;;3.90;99.90;;;;;;5047466;28;20059;-88
2022/03/07 08:51:23;;;;;;;14.60;5.70;;;4.00;99.90;;;;;;5078444;28;20055;-86
2022/03/07 08:53:48;;;;;;;11.45;4.57;;;4.10;99.90;;;;;;5058162;28;20044;-87
2022/03/07 08:56:14;;;;;;;11.73;4.47;;;4.20;99.90;;;;;;5086350;28;20071;-87
2022/03/07 08:58:40;;;;;;;13.30;4.35;;;4.30;99.90;;;;;;5068509;28;20040;-87
2022/03/07 09:01:09;;;;;;;9.40;3.70;;;4.90;99.90;;;;;;5066828;28;20070;-86
2022/03/07 09:03:35;;;;;;;10.35;3.92;;;;;;;;;;5067048;28;20122;-86
2022/03/07 09:06:01;;;;;;;10.85;4.13;;;4.60;99.90;;;;;;5065768;28;20035;-85
2022/03/07 09:08:27;;;;;;;11.43;3.33;;;4.80;99.90;;;;;;5065125;28;20556;-87
2022/03/07 09:10:53;;;;;;;11.45;3.20;;;4.80;99.90;;;;;;5080613;28;20115;-87
2022/03/07 09:13:18;;;;;;;9.48;3.40;;;4.80;99.90;;;;;;5065846;28;20143;-88
2022/03/07 09:15:45;;;;;;;11.45;3.78;;;4.90;99.90;;;;;;5063807;28;20075;-87
2022/03/07 09:18:12;;;;;;;12.23;3.78;;;5.00;99.90;;;;;;5063610;28;20588;-87
2022/03/07 09:20:40;;;;;;;12.45;4.25;;;6.40;99.90;;;;;;5075521;28;20048;-87
2022/03/07 09:23:05;;;;;;;13.95;4.07;;;5.90;99.90;;;;;;5068612;28;20089;-86
2022/03/07 09:25:31;;;;;;;10.98;3.42;;;5.30;99.90;;;;;;5079607;28;20134;-86
2022/03/07 09:27:57;;;;;;;10.35;3.10;;;5.40;99.90;;;;;;5066035;28;20036;-87
2022/03/07 09:30:23;;;;;;;9.85;3.60;;;5.50;99.90;;;;;;5075977;28;20409;-86
2022/03/07 09:32:50;;;;;;;8.88;3.38;;;5.70;99.90;;;;;;5062200;28;20565;-88
2022/03/07 09:35:16;;;;;;;9.20;3.20;;;6.90;99.90;;;;;;5079183;28;20044;-86
2022/03/07 09:37:41;;;;;;;9.90;2.63;;;5.70;99.90;;;;;;5067675;28;20046;-86
2022/03/07 09:40:08;;;;;;;7.85;2.17;;;5.80;99.90;;;;;;5068088;28;20489;-88
2022/03/07 09:42:34;;;;;;;13.00;2.63;;;5.90;99.90;;;;;;5052228;28;20028;-86
2022/03/07 09:44:59;;;;;;;10.43;2.72;;;7.40;99.90;;;;;;5067956;28;20455;-86
2022/03/07 09:47:26;;;;;;;8.25;2.60;;;7.30;99.90;;;;;;5031663;28;20135;-86
2022/03/07 09:49:52;;;;;;;10.65;2.80;;;5.80;99.90;;;;;;5046292;28;20035;-86
2022/03/07 09:52:18;;;;;;;8.73;2.40;;;5.80;99.90;;;;;;5080115;28;20028;-88
2022/03/07 09:54:44;;;;;;;10.88;2.78;;;7.30;99.90;;;;;;5066805;28;20043;-88
2022/03/07 09:57:10;;;;;;;11.30;2.70;;;;;;;;;;5061854;28;20040;-87
2022/03/07 09:59:36;;;;;;;8.48;2.13;;;5.80;99.90;;;;;;5069490;28;20047;-86
2022/03/07 10:02:12;;;;;;;10.38;2.22;;;7.10;99.90;;;;;;5064742;28;20044;-87
2022/03/07 10:04:43;;;;;;;7.55;2.22;;;6.30;99.90;;;;;;5087137;28;20032;-86
2022/03/07 10:07:10;;;;;;;7.63;2.25;;;6.30;99.90;;;;;;5071622;28;20603;-87
2022/03/07 10:09:36;;;;;;;10.50;2.55;;;6.30;99.90;;;;;;5077118;28;20181;-89
2022/03/07 10:12:05;;;;;;;6.97;2.30;;;6.50;99.90;;;;;;5048007;28;20044;-87
2022/03/07 10:14:42;;;;;;;9.32;2.25;;;6.70;99.90;;;;;;5067067;28;20536;-88
2022/03/07 10:17:20;;;;;;;9.63;2.53;;;6.70;99.90;;;;;;5068798;28;20101;-88
2022/03/07 10:19:47;;;;;;;10.30;2.70;;;6.90;99.90;;;;;;5086764;28;20501;-90
2022/03/07 10:22:22;;;;;;;6.70;1.92;;;7.00;99.90;;;;;;5079916;28;20032;-87
2022/03/07 10:25:00;;;;;;;7.88;2.00;;;7.10;99.90;;;;;;5080524;28;20119;-88
2022/03/07 10:27:29;;;;;;;7.32;2.10;;;8.10;99.90;;;;;;5079399;28;20098;-86
2022/03/07 10:29:54;;;;;;;5.63;1.80;;;8.30;99.90;;;;;;5076293;28;20039;-87
2022/03/07 10:32:20;;;;;;;6.72;2.20;;;7.20;99.90;;;;;;5082924;28;20044;-87
2022/03/07 10:34:46;;;;;;;5.95;1.90;;;7.50;99.90;;;;;;5063809;28;20108;-88
2022/03/07 10:37:12;;;;;;;7.45;2.20;;;7.10;99.90;;;;;;5047557;28;20036;-86
2022/03/07 10:39:46;;;;;;;10.00;2.25;;;7.20;99.90;;;;;;5034909;28;20258;-86
2022/03/07 10:42:19;;;;;;;9.52;2.53;;;8.30;99.90;;;;;;5088026;28;20071;-90
2022/03/07 10:44:46;;;;;;;8.20;2.13;;;8.10;99.90;;;;;;5049208;28;20078;-90
2022/03/07 10:47:14;;;;;;;9.45;2.10;;;7.50;99.90;;;;;;5066993;28;20039;-88
2022/03/07 10:50:07;;;;;;;10.68;2.08;;;7.50;99.90;;;;;;5078852;28;20118;-90
2022/03/07 10:52:36;;;;;;;8.30;2.53;;;7.60;99.90;;;;;;5079019;28;20047;-89
2022/03/07 10:55:02;;;;;;;7.55;2.30;;;7.90;99.90;;;;;;5084555;28;20480;-88
2022/03/07 10:57:28;;;;;;;7.28;2.20;;;7.60;99.90;;;;;;5049800;28;20036;-88
2022/03/07 10:59:54;;;;;;;7.78;2.30;;;7.60;99.90;;;;;;5033348;28;20548;-87
2022/03/07 11:02:19;;;;;;;7.10;2.30;;;7.70;99.90;;;;;;5026621;28;20067;-88
2022/03/07 11:04:50;;;;;;;7.15;2.25;;;7.80;99.90;;;;;;5061130;28;20028;-88
2022/03/07 11:07:16;;;;;;;7.60;2.08;;;7.80;99.90;;;;;;5082306;28;20119;-87
2022/03/07 11:09:42;;;;;;;7.75;2.42;;;7.70;99.90;;;;;;5065153;28;20111;-87
2022/03/07 11:12:12;;;;;;;6.65;2.35;;;9.00;99.90;;;;;;5061503;28;20058;-88
2022/03/07 11:14:40;;;;;;;7.38;2.10;;;7.60;99.90;;;;;;5064327;28;20520;-87
2022/03/07 11:17:14;;;;;;;5.88;1.90;;;7.70;99.90;;;;;;5078635;28;20107;-87
2022/03/07 11:19:41;;;;;;;8.65;2.20;;;7.90;99.90;;;;;;5078861;28;20040;-87
2022/03/07 11:22:07;;;;;;;9.10;2.60;;;7.20;99.90;;;;;;5075591;28;20128;-88
2022/03/07 11:24:36;;;;;;;7.82;2.30;;;8.20;99.90;;;;;;5063635;28;20139;-88
2022/03/07 11:27:03;;;;;;;8.35;2.42;;;8.60;99.90;;;;;;5060659;28;20067;-86
2022/03/07 11:29:41;;;;;;;7.85;2.40;;;8.30;99.90;;;;;;5075438;28;20040;-87
2022/03/07 11:32:09;;;;;;;7.40;2.20;;;8.50;99.90;;;;;;5079599;28;20043;-87
2022/03/07 11:34:36;;;;;;;6.47;1.77;;;8.60;99.90;;;;;;5062486;28;20035;-87
2022/03/07 11:37:03;;;;;;;7.55;2.30;;;9.70;99.90;;;;;;5065282;28;20050;-88
2022/03/07 11:39:30;;;;;;;6.90;1.92;;;8.60;99.90;;;;;;5048380;28;20051;-87
2022/03/07 11:42:14;;;;;;;7.93;1.98;;;8.60;99.90;;;;;;5087184;28;20048;-88
2022/03/07 11:44:42;;;;;;;6.03;2.03;;;8.60;99.90;;;;;;5084053;28;20046;-88
2022/03/07 11:47:16;;;;;;;6.80;2.17;;;8.50;99.90;;;;;;5071722;28;20069;-88
2022/03/07 11:49:43;;;;;;;5.65;1.90;;;8.60;99.90;;;;;;5085944;28;20118;-87
2022/03/07 11:52:17;;;;;;;7.80;2.45;;;9.00;99.90;;;;;;5082299;28;20040;-87
2022/03/07 11:54:54;;;;;;;6.63;1.83;;;9.50;99.90;;;;;;5080404;28;20097;-87
2022/03/07 11:57:34;;;;;;;6.93;2.30;;;7.80;99.90;;;;;;5080653;28;20078;-86
2022/03/07 12:00:13;;;;;;;8.60;2.42;;;7.70;99.90;;;;;;5094959;28;20044;-87
2022/03/07 12:02:45;;;;;;;6.68;1.98;;;7.90;99.90;;;;;;5063477;28;20036;-87
2022/03/07 12:05:26;;;;;;;8.93;1.95;;;8.10;99.90;;;;;;5064752;28;20044;-86
2022/03/07 12:07:53;;;;;;;6.30;1.98;;;8.40;99.90;;;;;;5062296;28;20039;-85
2022/03/07 12:10:19;;;;;;;5.93;2.08;;;8.50;99.90;;;;;;5072191;28;20075;-86
2022/03/07 12:12:45;;;;;;;5.95;1.88;;;8.70;99.90;;;;;;5079377;28;20036;-86
2022/03/07 12:15:13;;;;;;;3.53;1.40;;;8.80;99.90;;;;;;5075372;28;20495;-85
2022/03/07 12:17:39;;;;;;;5.93;1.90;;;9.00;99.90;;;;;;5079063;28;20130;-85
2022/03/07 12:20:06;;;;;;;5.90;1.98;;;9.00;99.90;;;;;;5066317;28;20122;-84
2022/03/07 12:22:35;;;;;;;5.43;1.80;;;9.10;99.90;;;;;;5080054;28;20434;-85
2022/03/07 12:25:07;;;;;;;5.90;2.08;;;9.20;99.90;;;;;;5077168;28;20052;-85
2022/03/07 12:27:37;;;;;;;6.32;1.83;;;9.10;99.90;;;;;;5063865;28;20083;-85
2022/03/07 12:30:06;;;;;;;6.47;1.90;;;8.90;99.90;;;;;;5065633;28;20129;-86
2022/03/07 12:32:32;;;;;;;6.03;1.80;;;8.60;99.90;;;;;;5084392;28;20256;-87
2022/03/07 12:34:59;;;;;;;5.60;1.75;;;8.50;99.90;;;;;;5068641;28;20119;-87
2022/03/07 12:37:28;;;;;;;5.53;1.80;;;8.60;99.90;;;;;;5070224;28;20464;-85
2022/03/07 12:39:57;;;;;;;5.05;1.77;;;8.80;99.90;;;;;;5057455;28;20032;-87
2022/03/07 12:42:24;;;;;;;4.72;1.85;;;9.00;99.90;;;;;;5090352;28;20045;-87
2022/03/07 12:44:51;;;;;;;5.25;1.75;;;9.10;99.90;;;;;;5076866;28;20035;-88
2022/03/07 12:47:23;;;;;;;7.25;1.90;;;9.30;99.90;;;;;;5087326;28;20041;-85
2022/03/07 12:49:50;;;;;;;6.45;1.90;;;9.30;99.90;;;;;;5055916;28;20051;-86
2022/03/07 12:52:26;;;;;;;5.80;1.90;;;10.60;99.90;;;;;;5085540;28;20089;-87